Time;durP1;ratioP1;P1;durP2;ratioP2;P2;SDS_P1;SDS_P2;PMS_P1;PMS_P2;Temp;Humidity;BMP_temperature;BMP_pressure;BME280_temperature;BME280_humidity;BME280_pressure;Samples;Min_cycle;Max_cycle;Signal;HPM_P1;HPM_P2
2022/05/24 00:01:33;;;;;;;;;;;20.10;57.80;;;;;;4966973;28;87530;-50
2022/05/24 00:03:59;;;;;;;;;;;20.10;57.80;;;;;;4967039;28;86886;-50
2022/05/24 00:06:30;;;;;;;;;;;20.10;57.80;;;;;;4966412;28;87112;-50
2022/05/24 00:08:55;;;;;;;;;;;20.00;57.80;;;;;;4965582;28;88172;-49
2022/05/24 00:11:21;;;;;;;;;;;20.00;57.80;;;;;;4966895;28;86876;-49
2022/05/24 00:13:48;;;;;;;;;;;20.00;57.80;;;;;;4967380;28;87031;-49
2022/05/24 00:16:13;;;;;;;;;;;20.00;57.80;;;;;;4966810;28;87501;-50
2022/05/24 00:18:39;;;;;;;;;;;20.00;57.80;;;;;;4969677;28;87153;-49
2022/05/24 00:21:06;;;;;;;;;;;20.00;57.80;;;;;;4965726;28;88795;-49
2022/05/24 00:23:32;;;;;;;;;;;20.00;57.90;;;;;;4966782;28;86928;-50
2022/05/24 00:25:59;;;;;;;;;;;19.90;57.80;;;;;;4966907;28;86925;-49
2022/05/24 00:28:26;;;;;;;;;;;20.00;57.90;;;;;;4966229;28;88482;-50
2022/05/24 00:30:52;;;;;;;;;;;19.90;57.80;;;;;;4966906;28;86842;-49
2022/05/24 00:33:18;;;;;;;;;;;19.90;57.80;;;;;;4966691;28;87046;-50
2022/05/24 00:35:44;;;;;;;;;;;19.90;57.80;;;;;;4966228;28;87886;-49
2022/05/24 00:38:16;;;;;;;;;;;19.90;57.80;;;;;;4967313;28;86101;-49
2022/05/24 00:40:44;;;;;;;;;;;19.90;57.90;;;;;;4969411;28;86843;-50
2022/05/24 00:43:28;;;;;;;;;;;19.90;57.90;;;;;;4966480;28;87015;-49
2022/05/24 00:45:56;;;;;;;;;;;19.90;58.00;;;;;;4965287;28;87878;-49
2022/05/24 00:48:25;;;;;;;;;;;19.90;57.90;;;;;;4966218;28;86806;-50
2022/05/24 00:50:52;;;;;;;;;;;19.90;57.90;;;;;;4966452;28;87046;-49
2022/05/24 00:53:17;;;;;;;;;;;19.90;57.90;;;;;;4966304;28;87106;-49
2022/05/24 00:56:03;;;;;;;;;;;19.80;57.90;;;;;;4965416;28;87648;-50
2022/05/24 00:58:35;;;;;;;;;;;19.80;57.90;;;;;;4955272;28;86862;-50
2022/05/24 01:01:02;;;;;;;;;;;19.80;57.90;;;;;;4966420;28;87007;-49
2022/05/24 01:03:27;;;;;;;;;;;19.80;57.90;;;;;;4969440;28;86683;-49
2022/05/24 01:05:53;;;;;;;;;;;19.90;58.00;;;;;;4965958;28;86909;-49
2022/05/24 01:08:19;;;;;;;;;;;19.80;57.90;;;;;;4965687;28;88647;-49
2022/05/24 01:10:48;;;;;;;;;;;19.80;57.90;;;;;;4965827;28;87824;-49
2022/05/24 01:13:17;;;;;;;;;;;19.80;57.90;;;;;;4966190;28;88841;-49
2022/05/24 01:15:44;;;;;;;;;;;19.80;58.00;;;;;;4965989;28;87114;-50
2022/05/24 01:18:10;;;;;;;;;;;19.80;58.00;;;;;;4966019;28;86877;-49
2022/05/24 01:20:36;;;;;;;;;;;19.80;58.00;;;;;;4967832;28;86870;-49
2022/05/24 01:23:20;;;;;;;;;;;19.80;58.00;;;;;;4969352;28;87586;-49
2022/05/24 01:25:56;;;;;;;;;;;19.80;58.00;;;;;;4972344;28;87077;-49
2022/05/24 01:28:40;;;;;;;;;;;19.80;58.00;;;;;;4969491;28;87743;-50
2022/05/24 01:31:06;;;;;;;;;;;19.80;58.00;;;;;;4969564;28;86912;-51
2022/05/24 01:36:36;;;;;;;;;;;19.70;58.00;;;;;;4888535;28;88495;-50
2022/05/24 01:39:04;;;;;;;;;;;19.70;58.00;;;;;;4954073;28;86922;-50
2022/05/24 01:41:31;;;;;;;;;;;19.70;58.00;;;;;;4969121;28;87851;-50
2022/05/24 01:43:57;;;;;;;;;;;19.70;58.00;;;;;;4969088;28;86954;-49
2022/05/24 01:46:26;;;;;;;;;;;19.70;58.00;;;;;;4969383;28;86938;-49
2022/05/24 01:48:57;;;;;;;;;;;19.70;58.00;;;;;;4971461;28;87256;-49
2022/05/24 01:51:24;;;;;;;;;;;19.70;58.00;;;;;;4969100;28;87019;-50
2022/05/24 01:53:52;;;;;;;;;;;19.70;58.10;;;;;;4969697;28;86816;-50
2022/05/24 01:56:20;;;;;;;;;;;19.70;58.10;;;;;;4968613;28;88663;-50
2022/05/24 01:58:49;;;;;;;;;;;19.70;58.10;;;;;;4969294;28;87210;-50
2022/05/24 02:01:23;;;;;;;;;;;19.70;58.10;;;;;;4968388;28;87835;-50
2022/05/24 02:03:49;;;;;;;;;;;19.60;58.10;;;;;;4968758;28;86879;-50
2022/05/24 02:06:22;;;;;;;;;;;19.60;58.10;;;;;;4968512;28;87110;-50
2022/05/24 02:08:48;;;;;;;;;;;19.60;58.20;;;;;;4971116;28;89386;-49
2022/05/24 02:11:14;;;;;;;;;;;19.60;58.20;;;;;;4968775;28;86986;-50
2022/05/24 02:13:41;;;;;;;;;;;19.60;58.10;;;;;;4968812;28;87045;-49
2022/05/24 02:16:10;;;;;;;;;;;19.60;58.20;;;;;;4968500;28;87840;-49
2022/05/24 02:18:39;;;;;;;;;;;19.60;58.20;;;;;;4969302;28;86188;-49
2022/05/24 02:21:05;;;;;;;;;;;19.50;58.20;;;;;;4968741;28;87286;-50
2022/05/24 02:23:38;;;;;;;;;;;19.50;58.20;;;;;;4968165;28;88406;-49
2022/05/24 02:26:07;;;;;;;;;;;19.50;58.20;;;;;;4968289;28;87841;-50
2022/05/24 02:28:32;;;;;;;;;;;19.50;58.20;;;;;;4968364;28;87896;-49
2022/05/24 02:31:03;;;;;;;;;;;19.60;58.30;;;;;;4970864;28;87492;-49
2022/05/24 02:33:29;;;;;;;;;;;19.50;58.20;;;;;;4967726;28;87901;-49
2022/05/24 02:35:55;;;;;;;;;;;19.50;58.20;;;;;;4967954;28;87787;-49
2022/05/24 02:38:21;;;;;;;;;;;19.50;58.20;;;;;;4968292;28;86940;-49
2022/05/24 02:43:31;;;;;;;;;;;19.50;58.20;;;;;;4965552;28;86232;-50
2022/05/24 02:45:57;;;;;;;;;;;19.50;58.30;;;;;;4968197;28;86901;-49
2022/05/24 02:48:22;;;;;;;;;;;19.50;58.30;;;;;;4968089;28;88007;-50
2022/05/24 02:50:48;;;;;;;;;;;19.40;58.20;;;;;;4967107;28;89406;-49
2022/05/24 02:53:14;;;;;;;;;;;19.50;58.30;;;;;;4971052;28;86878;-50
2022/05/24 02:55:39;;;;;;;;;;;19.40;58.40;;;;;;4967749;28;88527;-50
2022/05/24 02:58:06;;;;;;;;;;;19.40;58.40;;;;;;4968330;28;87203;-49
2022/05/24 03:00:31;;;;;;;;;;;19.40;59.00;;;;;;4967944;28;87816;-49
2022/05/24 03:02:57;;;;;;;;;;;19.40;58.40;;;;;;4967825;28;87636;-49
2022/05/24 03:05:23;;;;;;;;;;;19.40;58.30;;;;;;4967636;28;86984;-49
2022/05/24 03:10:34;;;;;;;;;;;19.40;58.40;;;;;;4967807;28;87178;-50
2022/05/24 03:15:45;;;;;;;;;;;19.40;58.40;;;;;;4970009;28;87758;-49
2022/05/24 03:18:12;;;;;;;;;;;19.30;58.30;;;;;;4967697;28;87148;-49
2022/05/24 03:20:38;;;;;;;;;;;19.30;58.40;;;;;;4967982;28;86836;-49
2022/05/24 03:23:04;;;;;;;;;;;19.40;58.50;;;;;;4967614;28;87458;-49
2022/05/24 03:25:31;;;;;;;;;;;19.40;58.50;;;;;;4967614;28;86851;-50
2022/05/24 03:27:58;;;;;;;;;;;19.30;58.50;;;;;;4967500;28;88073;-49
2022/05/24 03:30:24;;;;;;;;;;;19.30;58.50;;;;;;4967199;28;88580;-49
2022/05/24 03:32:50;;;;;;;;;;;19.30;58.50;;;;;;4968050;28;86649;-49
2022/05/24 03:35:16;;;;;;;;;;;19.30;58.50;;;;;;4967476;28;87604;-50
2022/05/24 03:37:42;;;;;;;;;;;19.30;58.50;;;;;;4969905;28;89454;-49
2022/05/24 03:40:08;;;;;;;;;;;19.30;58.50;;;;;;4966832;28;88074;-50
2022/05/24 03:42:34;;;;;;;;;;;19.30;58.50;;;;;;4967107;28;88777;-49
2022/05/24 03:44:59;;;;;;;;;;;19.30;58.50;;;;;;4966241;28;86938;-49
2022/05/24 03:47:25;;;;;;;;;;;19.30;58.50;;;;;;4967282;28;88062;-49
2022/05/24 03:49:51;;;;;;;;;;;19.30;58.50;;;;;;4966919;28;88528;-49
2022/05/24 03:52:16;;;;;;;;;;;19.30;58.50;;;;;;4967473;28;86891;-49
2022/05/24 03:54:42;;;;;;;;;;;19.30;58.60;;;;;;4967220;28;87984;-49
2022/05/24 04:00:00;;;;;;;;;;;19.30;58.50;;;;;;4938909;28;86971;-49
2022/05/24 04:02:26;;;;;;;;;;;19.20;58.50;;;;;;4966548;28;88585;-49
2022/05/24 04:04:51;;;;;;;;;;;19.20;58.50;;;;;;4966450;28;88117;-49
2022/05/24 04:07:17;;;;;;;;;;;19.20;58.50;;;;;;4966462;28;88858;-49
2022/05/24 04:09:43;;;;;;;;;;;19.20;58.60;;;;;;4966529;28;88735;-49
2022/05/24 04:12:09;;;;;;;;;;;19.20;58.60;;;;;;4966911;28;86901;-49
2022/05/24 04:14:35;;;;;;;;;;;19.20;58.60;;;;;;4966976;28;87484;-49
2022/05/24 04:17:01;;;;;;;;;;;19.20;58.60;;;;;;4966498;28;88424;-49
2022/05/24 04:19:27;;;;;;;;;;;19.20;58.60;;;;;;4969741;28;87069;-49
2022/05/24 04:21:53;;;;;;;;;;;19.20;58.60;;;;;;4967109;28;86754;-49
2022/05/24 04:24:18;;;;;;;;;;;19.20;58.60;;;;;;4966859;28;87061;-49
2022/05/24 04:26:44;;;;;;;;;;;19.20;58.60;;;;;;4966777;28;87989;-49
2022/05/24 04:29:09;;;;;;;;;;;19.20;58.60;;;;;;4965562;28;89258;-50
2022/05/24 04:31:35;;;;;;;;;;;19.20;58.60;;;;;;4966934;28;87115;-49
2022/05/24 04:34:01;;;;;;;;;;;19.20;58.60;;;;;;4966563;28;88040;-49
2022/05/24 04:36:26;;;;;;;;;;;19.20;58.70;;;;;;4966184;28;88623;-49
2022/05/24 04:38:52;;;;;;;;;;;19.20;58.70;;;;;;4966500;28;86858;-50
2022/05/24 04:44:02;;;;;;;;;;;19.10;58.70;;;;;;4963705;28;86798;-49
2022/05/24 04:47:06;;;;;;;;;;;19.20;58.70;;;;;;4966957;28;87968;-50
2022/05/24 04:49:16;;;;;;;;;;;19.20;58.70;;;;;;4965649;28;87638;-50
2022/05/24 04:51:41;;;;;;;;;;;19.20;58.70;;;;;;4966696;28;87066;-51
2022/05/24 04:54:07;;;;;;;;;;;19.10;58.70;;;;;;4965711;28;87860;-49
2022/05/24 04:56:33;;;;;;;;;;;19.10;58.60;;;;;;4969118;28;87524;-49
2022/05/24 04:58:58;;;;;;;;;;;19.10;58.70;;;;;;4969886;28;86891;-49
2022/05/24 05:01:24;;;;;;;;;;;19.10;58.70;;;;;;4969830;28;87042;-49
2022/05/24 05:03:49;;;;;;;;;;;19.20;58.70;;;;;;4972454;28;87507;-49
2022/05/24 05:06:15;;;;;;;;;;;19.10;58.70;;;;;;4969661;28;86914;-49
2022/05/24 05:08:41;;;;;;;;;;;19.10;58.80;;;;;;4969222;28;88614;-49
2022/05/24 05:11:06;;;;;;;;;;;19.10;58.70;;;;;;4970501;28;86149;-49
2022/05/24 05:13:32;;;;;;;;;;;19.10;58.80;;;;;;4969699;28;87208;-50
2022/05/24 05:15:58;;;;;;;;;;;19.10;58.70;;;;;;4969467;28;87535;-49
2022/05/24 05:18:24;;;;;;;;;;;19.10;58.70;;;;;;4968973;28;87810;-49
2022/05/24 05:20:50;;;;;;;;;;;19.10;58.80;;;;;;4969472;28;88986;-50
2022/05/24 05:23:16;;;;;;;;;;;19.10;58.80;;;;;;4969048;28;88410;-49
2022/05/24 05:25:43;;;;;;;;;;;19.20;58.90;;;;;;4972344;28;86885;-49
2022/05/24 05:28:09;;;;;;;;;;;19.10;58.90;;;;;;4969044;28;87811;-50
2022/05/24 05:33:19;;;;;;;;;;;19.20;58.80;;;;;;4969619;28;86859;-49
2022/05/24 05:35:46;;;;;;;;;;;19.20;58.90;;;;;;4969602;28;86532;-49
2022/05/24 05:38:12;;;;;;;;;;;19.20;58.90;;;;;;4969213;28;87087;-49
2022/05/24 05:40:38;;;;;;;;;;;19.20;59.00;;;;;;4969636;28;86807;-49
2022/05/24 05:43:03;;;;;;;;;;;19.20;58.90;;;;;;4968108;28;89413;-49
2022/05/24 05:45:29;;;;;;;;;;;19.20;59.00;;;;;;4969476;28;86795;-49
2022/05/24 05:47:55;;;;;;;;;;;19.20;59.10;;;;;;4971435;28;88112;-49
2022/05/24 05:50:21;;;;;;;;;;;19.20;59.10;;;;;;4969139;28;87166;-50
2022/05/24 05:52:47;;;;;;;;;;;19.20;59.10;;;;;;4969000;28;87971;-49
2022/05/24 05:55:12;;;;;;;;;;;19.20;59.10;;;;;;4968656;28;88325;-49
2022/05/24 05:57:39;;;;;;;;;;;19.20;59.10;;;;;;4968856;28;86946;-50
2022/05/24 06:00:05;;;;;;;;;;;19.20;59.80;;;;;;4969383;28;87848;-49
2022/05/24 06:02:31;;;;;;;;;;;19.20;59.20;;;;;;4968204;28;88633;-50
2022/05/24 06:04:56;;;;;;;;;;;19.20;59.20;;;;;;4969122;28;87041;-49
2022/05/24 06:07:23;;;;;;;;;;;19.20;59.30;;;;;;4966940;28;88026;-49
2022/05/24 06:09:49;;;;;;;;;;;19.20;59.30;;;;;;4971348;28;87614;-49
2022/05/24 06:12:15;;;;;;;;;;;19.20;59.10;;;;;;4968782;28;88222;-49
2022/05/24 06:14:41;;;;;;;;;;;19.20;59.30;;;;;;4968341;28;87895;-49
2022/05/24 06:17:07;;;;;;;;;;;19.20;59.30;;;;;;4968689;28;86870;-49
2022/05/24 06:19:33;;;;;;;;;;;19.30;59.20;;;;;;4968634;28;88145;-50
2022/05/24 06:21:58;;;;;;;;;;;19.30;59.30;;;;;;4968220;28;88313;-50
2022/05/24 06:24:24;;;;;;;;;;;19.30;59.30;;;;;;4969178;28;86116;-49
2022/05/24 06:26:50;;;;;;;;;;;19.30;59.30;;;;;;4968904;28;87057;-49
2022/05/24 06:29:17;;;;;;;;;;;19.30;59.20;;;;;;4970906;28;88445;-50
2022/05/24 06:31:44;;;;;;;;;;;19.30;59.40;;;;;;4967877;28;87833;-49
2022/05/24 06:34:11;;;;;;;;;;;19.30;59.40;;;;;;4968122;28;87768;-50
2022/05/24 06:36:37;;;;;;;;;;;19.30;59.50;;;;;;4968729;28;86863;-49
2022/05/24 06:39:03;;;;;;;;;;;19.30;59.40;;;;;;4968352;28;87274;-49
2022/05/24 06:41:28;;;;;;;;;;;19.30;59.40;;;;;;4967946;28;88830;-49
2022/05/24 06:43:54;;;;;;;;;;;19.30;59.50;;;;;;4968326;28;86894;-50
2022/05/24 06:46:20;;;;;;;;;;;19.30;59.40;;;;;;4968610;28;86874;-49
2022/05/24 06:48:46;;;;;;;;;;;19.30;59.30;;;;;;4967358;28;86842;-50
2022/05/24 06:51:13;;;;;;;;;;;19.30;59.40;;;;;;4970929;28;86969;-49
2022/05/24 06:53:39;;;;;;;;;;;19.30;59.30;;;;;;4967311;28;88696;-49
2022/05/24 06:56:05;;;;;;;;;;;19.30;59.40;;;;;;4966918;28;87871;-51
2022/05/24 06:58:31;;;;;;;;;;;19.30;59.40;;;;;;4967895;28;86874;-50
2022/05/24 07:03:42;;;;;;;;;;;19.30;59.40;;;;;;4964745;28;86841;-51
2022/05/24 07:06:07;;;;;;;;;;;19.40;59.40;;;;;;4967292;28;87122;-49
2022/05/24 07:08:33;;;;;;;;;;;19.30;59.30;;;;;;4966911;28;88423;-53
2022/05/24 07:10:59;;;;;;;;;;;19.30;59.40;;;;;;4967422;28;86876;-51
2022/05/24 07:13:24;;;;;;;;;;;19.30;59.30;;;;;;4970251;28;88038;-51
2022/05/24 07:15:50;;;;;;;;;;;19.40;59.40;;;;;;4967379;28;86930;-51
2022/05/24 07:18:16;;;;;;;;;;;19.30;59.30;;;;;;4967055;28;87946;-51
2022/05/24 07:20:42;;;;;;;;;;;19.40;59.30;;;;;;4966338;28;89406;-50
2022/05/24 07:23:10;;;;;;;;;;;19.30;59.20;;;;;;4967338;28;87197;-49
2022/05/24 07:25:36;;;;;;;;;;;19.30;59.20;;;;;;4967191;28;87752;-50
2022/05/24 07:28:02;;;;;;;;;;;19.30;59.10;;;;;;4966685;28;88829;-50
2022/05/24 07:30:28;;;;;;;;;;;19.30;59.10;;;;;;4967269;28;86988;-50
2022/05/24 07:32:54;;;;;;;;;;;19.30;59.10;;;;;;4967338;28;87066;-50
2022/05/24 07:35:19;;;;;;;;;;;19.40;59.00;;;;;;4969405;28;88683;-50
2022/05/24 07:37:46;;;;;;;;;;;19.40;58.90;;;;;;4967854;28;86168;-53
2022/05/24 07:45:49;;;;;;;;;;;19.40;59.80;;;;;;4966768;28;87854;-50
2022/05/24 07:48:16;;;;;;;;;;;19.30;59.70;;;;;;4966561;28;87610;-50
2022/05/24 07:50:41;;;;;;;;;;;19.40;59.70;;;;;;4966859;28;86911;-50
2022/05/24 07:53:08;;;;;;;;;;;19.40;59.90;;;;;;4966871;28;87331;-50
2022/05/24 07:55:34;;;;;;;;;;;19.40;59.60;;;;;;4966641;28;87511;-50
2022/05/24 07:58:00;;;;;;;;;;;19.40;59.50;;;;;;4969845;28;86983;-50
2022/05/24 08:00:25;;;;;;;;;;;19.40;59.60;;;;;;4966584;28;87519;-51
2022/05/24 08:02:52;;;;;;;;;;;19.50;59.80;;;;;;4966337;28;86161;-50
2022/05/24 08:05:18;;;;;;;;;;;19.50;59.60;;;;;;4966543;28;87182;-49
2022/05/24 08:07:49;;;;;;;;;;;19.50;59.50;;;;;;4946466;28;88485;-50
2022/05/24 08:10:15;;;;;;;;;;;19.50;59.90;;;;;;4946430;28;87835;-51
2022/05/24 08:12:41;;;;;;;;;;;19.50;59.50;;;;;;4946934;28;88218;-50
2022/05/24 08:15:07;;;;;;;;;;;19.50;60.00;;;;;;4946492;28;88775;-50
2022/05/24 08:17:34;;;;;;;;;;;19.50;59.80;;;;;;4946971;28;86879;-51
2022/05/24 08:19:59;;;;;;;;;;;19.50;59.80;;;;;;4949343;28;87954;-50
2022/05/24 08:22:25;;;;;;;;;;;19.60;59.80;;;;;;4947414;28;86999;-49
2022/05/24 08:24:51;;;;;;;;;;;19.60;59.90;;;;;;4946835;28;87829;-50
2022/05/24 08:27:16;;;;;;;;;;;19.60;59.80;;;;;;4947065;28;86562;-50
2022/05/24 08:29:42;;;;;;;;;;;19.60;60.00;;;;;;4946002;28;87087;-50
2022/05/24 08:32:08;;;;;;;;;;;19.60;60.30;;;;;;4947128;28;87124;-50
2022/05/24 08:34:34;;;;;;;;;;;19.60;60.50;;;;;;4945919;28;89929;-49
2022/05/24 08:37:00;;;;;;;;;;;19.60;60.70;;;;;;4947036;28;86845;-50
2022/05/24 08:39:26;;;;;;;;;;;19.60;60.10;;;;;;4949650;28;86810;-49
2022/05/24 08:42:10;;;;;;;;;;;19.70;60.20;;;;;;4946613;28;86871;-49
2022/05/24 08:50:23;;;;;;;;;;;19.60;60.40;;;;;;4947014;28;87437;-50
2022/05/24 08:52:59;;;;;;;;;;;19.70;60.60;;;;;;4946975;28;88164;-50
2022/05/24 08:55:25;;;;;;;;;;;19.70;60.40;;;;;;4946416;28;87306;-50
2022/05/24 08:57:53;;;;;;;;;;;19.70;60.80;;;;;;4946424;28;86879;-50
2022/05/24 09:00:21;;;;;;;;;;;19.70;60.50;;;;;;4946141;28;87788;-50
2022/05/24 09:02:47;;;;;;;;;;;19.80;60.70;;;;;;4948869;28;88509;-50
2022/05/24 09:05:19;;;;;;;;;;;19.70;60.70;;;;;;4946427;28;88112;-50
2022/05/24 09:07:50;;;;;;;;;;;19.70;61.00;;;;;;4945939;28;89003;-50
2022/05/24 09:10:18;;;;;;;;;;;19.80;61.10;;;;;;4946252;28;86863;-50
2022/05/24 09:12:52;;;;;;;;;;;19.80;61.10;;;;;;4946675;28;86880;-50
2022/05/24 09:18:29;;;;;;;;;;;19.80;61.10;;;;;;4943884;28;86578;-50
2022/05/24 09:20:55;;;;;;;;;;;19.80;61.00;;;;;;4946361;28;86870;-51
2022/05/24 09:23:20;;;;;;;;;;;19.80;61.10;;;;;;4945874;28;87891;-50
2022/05/24 09:25:53;;;;;;;;;;;19.80;61.30;;;;;;4948445;28;88576;-58
2022/05/24 09:28:19;;;;;;;;;;;19.90;64.70;;;;;;4945796;28;87808;-53
2022/05/24 09:30:45;;;;;;;;;;;20.20;66.70;;;;;;4946448;28;87003;-53
2022/05/24 09:33:22;;;;;;;;;;;20.40;67.30;;;;;;4946170;28;87206;-55
2022/05/24 09:35:50;;;;;;;;;;;20.30;67.00;;;;;;4945612;28;88881;-54
2022/05/24 09:38:17;;;;;;;;;;;20.40;66.80;;;;;;4945917;28;86918;-58
2022/05/24 09:41:09;;;;;;;;;;;20.40;65.00;;;;;;4945605;28;87176;-54
2022/05/24 09:43:36;;;;;;;;;;;20.60;66.10;;;;;;4946257;28;87949;-53
2022/05/24 09:46:04;;;;;;;;;;;20.70;65.40;;;;;;4949445;28;86883;-58
2022/05/24 09:48:32;;;;;;;;;;;20.70;65.70;;;;;;4951382;28;87073;-57
2022/05/24 09:50:59;;;;;;;;;;;20.70;64.80;;;;;;4948357;28;87800;-54
2022/05/24 09:53:26;;;;;;;;;;;20.70;65.40;;;;;;4948828;28;89005;-54
2022/05/24 09:55:59;;;;;;;;;;;20.70;65.50;;;;;;4948863;28;87746;-55
2022/05/24 09:58:31;;;;;;;;;;;20.80;64.80;;;;;;4948877;28;87113;-60
2022/05/24 10:01:06;;;;;;;;;;;20.80;64.20;;;;;;4949006;28;88069;-57
2022/05/24 10:03:36;;;;;;;;;;;20.80;64.70;;;;;;4947955;28;87653;-52
2022/05/24 10:06:07;;;;;;;;;;;20.70;64.70;;;;;;4954761;28;87115;-51
2022/05/24 10:08:38;;;;;;;;;;;20.70;64.70;;;;;;4969004;28;88233;-53
2022/05/24 10:11:05;;;;;;;;;;;20.80;64.40;;;;;;4970979;28;88789;-54
2022/05/24 10:13:39;;;;;;;;;;;20.80;64.10;;;;;;4968693;28;86933;-53
2022/05/24 10:16:05;;;;;;;;;;;20.80;64.00;;;;;;4967367;28;89326;-51
2022/05/24 10:18:49;;;;;;;;;;;20.80;63.90;;;;;;4968389;28;86923;-55
2022/05/24 10:21:14;;;;;;;;;;;20.80;64.00;;;;;;4968977;28;86902;-51
2022/05/24 10:23:47;;;;;;;;;;;20.80;64.00;;;;;;4968204;28;88582;-51
2022/05/24 10:26:31;;;;;;;;;;;20.80;63.80;;;;;;4967648;28;86934;-55
2022/05/24 10:28:57;;;;;;;;;;;20.80;63.90;;;;;;4968538;28;86936;-53
2022/05/24 10:31:32;;;;;;;;;;;20.80;63.60;;;;;;4967402;28;87161;-52
2022/05/24 10:39:35;;;;;;;;;;;20.80;63.40;;;;;;4968370;28;87108;-51
2022/05/24 10:42:00;;;;;;;;;;;20.80;63.50;;;;;;4967452;28;88027;-55
2022/05/24 10:44:32;;;;;;;;;;;20.80;63.20;;;;;;4967520;28;88812;-53
2022/05/24 10:47:13;;;;;;;;;;;20.90;63.40;;;;;;4968281;28;87105;-54
2022/05/24 10:49:50;;;;;;;;;;;20.90;63.10;;;;;;4968151;28;88058;-51
2022/05/24 10:52:31;;;;;;;;;;;20.90;63.10;;;;;;4967600;28;88461;-51
2022/05/24 10:55:00;;;;;;;;;;;20.90;63.20;;;;;;4971280;28;87010;-51
2022/05/24 10:57:29;;;;;;;;;;;21.00;63.10;;;;;;4967811;28;88743;-51
2022/05/24 11:00:01;;;;;;;;;;;21.00;63.00;;;;;;4968473;28;86154;-51
2022/05/24 11:02:35;;;;;;;;;;;21.00;63.00;;;;;;4967868;28;87128;-52
2022/05/24 11:05:10;;;;;;;;;;;21.10;63.10;;;;;;4967358;28;88507;-52
2022/05/24 11:07:36;;;;;;;;;;;21.10;62.90;;;;;;4967040;28;88013;-51
2022/05/24 11:10:09;;;;;;;;;;;21.10;63.00;;;;;;4967843;28;88943;-52
2022/05/24 11:12:43;;;;;;;;;;;21.10;63.00;;;;;;4967383;28;87812;-51
2022/05/24 11:15:12;;;;;;;;;;;21.10;62.90;;;;;;4967794;28;86867;-51
2022/05/24 11:17:37;;;;;;;;;;;21.10;62.90;;;;;;4970343;28;87778;-51
2022/05/24 11:20:04;;;;;;;;;;;21.10;63.00;;;;;;4967785;28;86885;-51
2022/05/24 11:22:42;;;;;;;;;;;21.10;63.00;;;;;;4967767;28;87114;-51
2022/05/24 11:25:14;;;;;;;;;;;21.10;62.90;;;;;;4967959;28;86967;-51
2022/05/24 11:27:43;;;;;;;;;;;21.20;62.80;;;;;;4967393;28;87214;-52
2022/05/24 11:30:27;;;;;;;;;;;21.20;62.90;;;;;;4967451;28;86946;-52
2022/05/24 11:33:09;;;;;;;;;;;21.20;62.80;;;;;;4966805;28;87819;-51
2022/05/24 11:35:43;;;;;;;;;;;21.20;62.60;;;;;;4967524;28;87154;-51
2022/05/24 11:38:10;;;;;;;;;;;21.20;62.70;;;;;;4967749;28;87094;-51
2022/05/24 11:40:54;;;;;;;;;;;21.30;62.80;;;;;;4969896;28;88282;-51
2022/05/24 11:43:35;;;;;;;;;;;21.30;62.70;;;;;;4967360;28;87230;-52
2022/05/24 11:46:19;;;;;;;;;;;21.30;62.60;;;;;;4967025;28;88720;-52
2022/05/24 11:48:50;;;;;;;;;;;21.40;62.60;;;;;;4967397;28;87013;-51
2022/05/24 11:51:39;;;;;;;;;;;21.30;62.60;;;;;;4967794;28;87110;-52
2022/05/24 11:54:25;;;;;;;;;;;21.40;62.80;;;;;;4966676;28;88695;-51
2022/05/24 11:57:00;;;;;;;;;;;21.40;62.60;;;;;;4916773;28;86893;-51
2022/05/24 11:59:52;;;;;;;;;;;21.50;62.60;;;;;;4966764;28;87819;-52
2022/05/24 12:02:21;;;;;;;;;;;21.50;62.40;;;;;;4961934;28;88601;-51
2022/05/24 12:07:56;;;;;;;;;;;21.60;62.50;;;;;;4966698;28;87078;-56
2022/05/24 12:10:22;;;;;;;;;;;21.60;62.50;;;;;;4966538;28;86879;-51
2022/05/24 12:12:51;;;;;;;;;;;21.60;62.50;;;;;;4966428;28;88095;-51
2022/05/24 12:15:19;;;;;;;;;;;21.60;62.60;;;;;;4965974;28;88684;-52
2022/05/24 12:17:46;;;;;;;;;;;21.60;62.50;;;;;;4966761;28;86459;-52
2022/05/24 12:20:30;;;;;;;;;;;21.60;62.40;;;;;;4966358;28;87382;-51
2022/05/24 12:23:05;;;;;;;;;;;21.70;62.50;;;;;;4966045;28;87471;-51
2022/05/24 12:25:49;;;;;;;;;;;21.70;62.40;;;;;;4966238;28;87861;-52
2022/05/24 12:28:15;;;;;;;;;;;21.70;62.30;;;;;;4968691;28;88396;-52
2022/05/24 12:30:43;;;;;;;;;;;21.80;62.30;;;;;;4966316;28;86917;-51
2022/05/24 12:33:31;;;;;;;;;;;21.80;62.30;;;;;;4966372;28;88013;-51
2022/05/24 12:36:00;;;;;;;;;;;21.80;62.50;;;;;;4965506;28;88255;-51
2022/05/24 12:38:27;;;;;;;;;;;21.80;62.30;;;;;;4966521;28;86891;-51
2022/05/24 12:41:12;;;;;;;;;;;21.80;62.40;;;;;;4966301;28;87948;-52
2022/05/24 12:43:37;;;;;;;;;;;21.90;62.30;;;;;;4966391;28;87089;-51
2022/05/24 12:46:03;;;;;;;;;;;21.90;62.50;;;;;;4966263;28;87191;-51
2022/05/24 12:48:36;;;;;;;;;;;22.00;62.40;;;;;;4968817;28;86875;-51
2022/05/24 12:51:07;;;;;;;;;;;22.00;62.20;;;;;;4965567;28;87870;-51
2022/05/24 12:53:33;;;;;;;;;;;22.00;62.30;;;;;;4966040;28;88763;-51
2022/05/24 12:56:08;;;;;;;;;;;22.00;62.30;;;;;;4966056;28;87628;-51
2022/05/24 12:58:45;;;;;;;;;;;22.00;62.30;;;;;;4965939;28;86894;-51
2022/05/24 13:01:28;;;;;;;;;;;22.10;62.30;;;;;;4966049;28;88010;-52
2022/05/24 13:04:15;;;;;;;;;;;22.10;62.20;;;;;;4965623;28;87872;-51
2022/05/24 13:06:42;;;;;;;;;;;22.10;62.20;;;;;;4965618;28;87261;-51
2022/05/24 13:09:13;;;;;;;;;;;22.10;62.30;;;;;;4966279;28;87960;-51
2022/05/24 13:11:39;;;;;;;;;;;22.10;62.30;;;;;;4968357;28;88652;-55
2022/05/24 13:14:06;;;;;;;;;;;22.10;62.30;;;;;;4965910;28;88063;-51
2022/05/24 13:16:33;;;;;;;;;;;22.20;62.20;;;;;;4966316;28;88580;-53
2022/05/24 13:19:01;;;;;;;;;;;22.20;62.00;;;;;;4969249;28;87084;-52
2022/05/24 13:21:27;;;;;;;;;;;22.20;61.90;;;;;;4969158;28;88053;-54
2022/05/24 13:24:09;;;;;;;;;;;22.20;62.10;;;;;;4968774;28;88553;-52
2022/05/24 13:26:36;;;;;;;;;;;22.30;62.00;;;;;;4969160;28;87043;-52
2022/05/24 13:29:21;;;;;;;;;;;22.20;62.50;;;;;;4969108;28;88167;-51
2022/05/24 13:34:33;;;;;;;;;;;22.30;62.00;;;;;;4972827;28;86154;-51
2022/05/24 13:37:11;;;;;;;;;;;22.30;62.00;;;;;;4968590;28;87962;-51
2022/05/24 13:39:43;;;;;;;;;;;22.30;61.90;;;;;;4968930;28;86990;-51
2022/05/24 13:42:11;;;;;;;;;;;22.30;61.80;;;;;;4968262;28;87942;-53
2022/05/24 13:44:38;;;;;;;;;;;22.40;61.80;;;;;;4968385;28;88291;-52
2022/05/24 13:47:06;;;;;;;;;;;22.40;61.80;;;;;;4969022;28;86872;-52
2022/05/24 13:49:37;;;;;;;;;;;22.40;61.70;;;;;;4968734;28;87243;-53
2022/05/24 13:52:12;;;;;;;;;;;22.40;61.60;;;;;;4968093;28;86926;-52
2022/05/24 13:54:38;;;;;;;;;;;22.50;61.60;;;;;;4968670;28;87110;-51
2022/05/24 13:57:05;;;;;;;;;;;22.50;61.70;;;;;;4971405;28;86811;-54
2022/05/24 13:59:32;;;;;;;;;;;22.50;61.50;;;;;;4969212;28;86295;-54
2022/05/24 14:02:08;;;;;;;;;;;22.60;61.50;;;;;;4968715;28;87301;-54
2022/05/24 14:04:38;;;;;;;;;;;22.60;62.10;;;;;;4968262;28;88767;-50
2022/05/24 14:07:06;;;;;;;;;;;22.60;61.30;;;;;;4967494;28;87881;-52
2022/05/24 14:09:33;;;;;;;;;;;22.70;61.20;;;;;;4968462;28;89256;-51
2022/05/24 14:12:01;;;;;;;;;;;22.70;61.30;;;;;;4968174;28;88504;-50
2022/05/24 14:14:28;;;;;;;;;;;22.70;61.30;;;;;;4968379;28;87196;-51
2022/05/24 14:16:54;;;;;;;;;;;22.70;61.20;;;;;;4968497;28;87152;-50
2022/05/24 14:19:25;;;;;;;;;;;22.80;61.30;;;;;;4970823;28;88524;-50
2022/05/24 14:21:54;;;;;;;;;;;22.80;61.20;;;;;;4966774;28;87158;-50
2022/05/24 14:24:22;;;;;;;;;;;22.80;61.20;;;;;;4968448;28;87976;-50
2022/05/24 14:26:49;;;;;;;;;;;22.90;61.20;;;;;;4968216;28;86878;-50
2022/05/24 14:29:15;;;;;;;;;;;22.90;61.10;;;;;;4967264;28;87319;-50
2022/05/24 14:31:41;;;;;;;;;;;22.90;61.10;;;;;;4967114;28;89524;-50
2022/05/24 14:34:11;;;;;;;;;;;22.90;61.70;;;;;;4968190;28;86982;-50
2022/05/24 14:36:38;;;;;;;;;;;22.90;61.10;;;;;;4968159;28;87997;-51
2022/05/24 14:39:04;;;;;;;;;;;22.90;60.80;;;;;;4967629;28;88609;-50
2022/05/24 14:41:30;;;;;;;;;;;22.90;60.90;;;;;;4971230;28;87052;-50
2022/05/24 14:44:00;;;;;;;;;;;23.00;60.80;;;;;;4967858;28;87582;-50
2022/05/24 14:46:26;;;;;;;;;;;23.00;60.90;;;;;;4967954;28;86933;-50
2022/05/24 14:48:53;;;;;;;;;;;22.90;61.00;;;;;;4968313;28;87819;-50
2022/05/24 14:51:23;;;;;;;;;;;22.90;60.80;;;;;;4967444;28;87949;-50
2022/05/24 14:53:49;;;;;;;;;;;23.00;60.80;;;;;;4967817;28;86912;-56
2022/05/24 14:56:15;;;;;;;;;;;23.00;54.50;;;;;;4966568;28;87945;-57
2022/05/24 14:58:40;;;;;;;;;;;23.20;52.20;;;;;;4966735;28;87203;-53
2022/05/24 15:01:06;;;;;;;;;;;23.20;51.50;;;;;;4969665;28;87154;-57
2022/05/24 15:03:32;;;;;;;;;;;23.20;52.10;;;;;;4966568;28;88602;-52
2022/05/24 15:05:57;;;;;;;;;;;23.30;51.80;;;;;;4966607;28;87438;-61
2022/05/24 15:16:36;;;;;;;;;;;23.70;48.10;;;;;;4967549;28;87046;-53
2022/05/24 15:19:03;;;;;;;;;;;23.70;47.10;;;;;;4966968;28;88644;-50
2022/05/24 15:21:32;;;;;;;;;;;23.80;46.20;;;;;;4966767;28;87880;-56